sensor_id;sensor_type;location;lat;lon;timestamp;pressure;altitude;pressure_sealevel;temperature;humidity
52591;BME280;38483;42.620;25.394;2023-07-24T00:01:59;97237.03;;;22.32;74.78
52591;BME280;38483;42.620;25.394;2023-07-24T00:04:27;97252.66;;;22.63;74.32
52591;BME280;38483;42.620;25.394;2023-07-24T00:06:54;97243.22;;;22.71;73.88
52591;BME280;38483;42.620;25.394;2023-07-24T00:09:21;97250.94;;;23.10;72.89
52591;BME280;38483;42.620;25.394;2023-07-24T00:11:49;97253.44;;;23.21;72.23
52591;BME280;38483;42.620;25.394;2023-07-24T00:14:16;97250.13;;;23.10;72.48
52591;BME280;38483;42.620;25.394;2023-07-24T00:16:44;97242.06;;;23.11;72.04
52591;BME280;38483;42.620;25.394;2023-07-24T00:19:11;97238.09;;;23.44;71.33
52591;BME280;38483;42.620;25.394;2023-07-24T00:21:38;97249.97;;;23.67;71.68
52591;BME280;38483;42.620;25.394;2023-07-24T00:24:05;97238.56;;;23.67;70.99
52591;BME280;38483;42.620;25.394;2023-07-24T00:26:32;97239.16;;;23.61;71.85
52591;BME280;38483;42.620;25.394;2023-07-24T00:28:59;97236.81;;;23.48;72.11
52591;BME280;38483;42.620;25.394;2023-07-24T00:31:27;97221.50;;;22.96;72.10
52591;BME280;38483;42.620;25.394;2023-07-24T00:33:54;97236.41;;;22.68;73.12
52591;BME280;38483;42.620;25.394;2023-07-24T00:36:21;97228.75;;;22.65;73.56
52591;BME280;38483;42.620;25.394;2023-07-24T00:38:48;97241.53;;;22.70;72.78
52591;BME280;38483;42.620;25.394;2023-07-24T00:41:15;97221.50;;;22.57;73.91
52591;BME280;38483;42.620;25.394;2023-07-24T00:43:42;97217.88;;;22.20;74.59
52591;BME280;38483;42.620;25.394;2023-07-24T00:46:10;97236.78;;;22.44;74.97
52591;BME280;38483;42.620;25.394;2023-07-24T00:48:39;97235.97;;;22.44;74.68
52591;BME280;38483;42.620;25.394;2023-07-24T00:51:10;97238.16;;;22.48;75.02
52591;BME280;38483;42.620;25.394;2023-07-24T00:53:40;97227.31;;;22.32;77.33
52591;BME280;38483;42.620;25.394;2023-07-24T00:56:08;97221.50;;;22.57;76.91
52591;BME280;38483;42.620;25.394;2023-07-24T00:58:37;97234.88;;;22.85;77.01
52591;BME280;38483;42.620;25.394;2023-07-24T01:01:04;97226.47;;;23.18;77.63
52591;BME280;38483;42.620;25.394;2023-07-24T01:03:34;97229.94;;;23.18;72.97
52591;BME280;38483;42.620;25.394;2023-07-24T01:06:03;97238.47;;;22.93;73.11
52591;BME280;38483;42.620;25.394;2023-07-24T01:08:30;97242.91;;;22.93;72.75
52591;BME280;38483;42.620;25.394;2023-07-24T01:11:01;97232.53;;;22.62;73.67
52591;BME280;38483;42.620;25.394;2023-07-24T01:13:36;97237.25;;;22.69;73.29
52591;BME280;38483;42.620;25.394;2023-07-24T01:16:14;97229.72;;;22.83;72.75
52591;BME280;38483;42.620;25.394;2023-07-24T01:18:43;97235.72;;;22.66;73.62
52591;BME280;38483;42.620;25.394;2023-07-24T01:21:11;97223.22;;;22.58;73.67
52591;BME280;38483;42.620;25.394;2023-07-24T01:23:55;97221.06;;;22.52;72.69
52591;BME280;38483;42.620;25.394;2023-07-24T01:26:25;97230.84;;;22.81;71.62
52591;BME280;38483;42.620;25.394;2023-07-24T01:28:53;97238.88;;;23.08;70.05
52591;BME280;38483;42.620;25.394;2023-07-24T01:31:20;97229.16;;;22.89;70.67
52591;BME280;38483;42.620;25.394;2023-07-24T01:33:47;97212.34;;;22.90;70.65
52591;BME280;38483;42.620;25.394;2023-07-24T01:36:18;97245.97;;;23.07;70.99
52591;BME280;38483;42.620;25.394;2023-07-24T01:38:47;97249.31;;;23.00;71.10
52591;BME280;38483;42.620;25.394;2023-07-24T01:41:15;97245.81;;;22.90;71.71
52591;BME280;38483;42.620;25.394;2023-07-24T01:43:43;97253.47;;;23.02;71.15
52591;BME280;38483;42.620;25.394;2023-07-24T01:46:10;97234.66;;;23.15;70.53
52591;BME280;38483;42.620;25.394;2023-07-24T01:48:37;97232.19;;;23.13;70.63
52591;BME280;38483;42.620;25.394;2023-07-24T01:51:05;97239.47;;;22.83;71.16
52591;BME280;38483;42.620;25.394;2023-07-24T01:53:32;97219.28;;;22.34;72.51
52591;BME280;38483;42.620;25.394;2023-07-24T01:55:59;97222.06;;;22.32;72.48
52591;BME280;38483;42.620;25.394;2023-07-24T01:58:26;97247.66;;;22.70;71.22
52591;BME280;38483;42.620;25.394;2023-07-24T02:00:55;97237.81;;;22.62;71.52
52591;BME280;38483;42.620;25.394;2023-07-24T02:03:23;97221.66;;;22.37;70.96
52591;BME280;38483;42.620;25.394;2023-07-24T02:05:50;97240.41;;;22.43;70.69
52591;BME280;38483;42.620;25.394;2023-07-24T02:08:18;97243.72;;;22.55;70.44
52591;BME280;38483;42.620;25.394;2023-07-24T02:10:48;97247.75;;;22.21;71.70
52591;BME280;38483;42.620;25.394;2023-07-24T02:13:16;97237.59;;;22.07;71.78
52591;BME280;38483;42.620;25.394;2023-07-24T02:15:48;97224.50;;;21.86;71.73
52591;BME280;38483;42.620;25.394;2023-07-24T02:18:15;97240.56;;;21.83;73.02
52591;BME280;38483;42.620;25.394;2023-07-24T02:20:49;97234.16;;;21.76;73.02
52591;BME280;38483;42.620;25.394;2023-07-24T02:23:16;97231.72;;;21.33;75.29
52591;BME280;38483;42.620;25.394;2023-07-24T02:25:43;97233.13;;;21.37;75.46
52591;BME280;38483;42.620;25.394;2023-07-24T02:28:10;97231.78;;;21.43;75.49
52591;BME280;38483;42.620;25.394;2023-07-24T02:30:39;97211.19;;;21.57;74.84
52591;BME280;38483;42.620;25.394;2023-07-24T02:33:06;97232.13;;;21.89;73.79
52591;BME280;38483;42.620;25.394;2023-07-24T02:35:40;97232.13;;;21.89;72.90
52591;BME280;38483;42.620;25.394;2023-07-24T02:38:08;97207.19;;;21.72;74.20
52591;BME280;38483;42.620;25.394;2023-07-24T02:40:35;97216.19;;;21.91;73.92
52591;BME280;38483;42.620;25.394;2023-07-24T02:43:03;97237.28;;;22.10;73.15
52591;BME280;38483;42.620;25.394;2023-07-24T02:45:36;97235.50;;;22.10;72.35
52591;BME280;38483;42.620;25.394;2023-07-24T02:48:04;97233.94;;;21.98;73.17
52591;BME280;38483;42.620;25.394;2023-07-24T02:50:32;97219.97;;;21.67;75.31
52591;BME280;38483;42.620;25.394;2023-07-24T02:53:00;97227.81;;;21.88;75.95
52591;BME280;38483;42.620;25.394;2023-07-24T02:55:27;97227.44;;;22.02;76.59
52591;BME280;38483;42.620;25.394;2023-07-24T02:57:54;97232.16;;;22.08;76.93
52591;BME280;38483;42.620;25.394;2023-07-24T03:00:23;97237.19;;;22.21;75.83
52591;BME280;38483;42.620;25.394;2023-07-24T03:02:52;97244.81;;;22.14;75.66
52591;BME280;38483;42.620;25.394;2023-07-24T03:05:19;97236.47;;;22.09;75.85
52591;BME280;38483;42.620;25.394;2023-07-24T03:07:46;97222.19;;;21.72;76.36
52591;BME280;38483;42.620;25.394;2023-07-24T03:10:13;97222.06;;;21.43;77.68
52591;BME280;38483;42.620;25.394;2023-07-24T03:12:40;97239.41;;;21.46;78.19
52591;BME280;38483;42.620;25.394;2023-07-24T03:15:07;97237.97;;;21.32;78.90
52591;BME280;38483;42.620;25.394;2023-07-24T03:17:34;97239.78;;;21.32;78.39
52591;BME280;38483;42.620;25.394;2023-07-24T03:20:14;97245.31;;;21.29;79.66
52591;BME280;38483;42.620;25.394;2023-07-24T03:22:42;97232.88;;;21.10;80.43
52591;BME280;38483;42.620;25.394;2023-07-24T03:25:10;97243.59;;;20.97;82.17
52591;BME280;38483;42.620;25.394;2023-07-24T03:27:37;97241.97;;;20.85;83.77
52591;BME280;38483;42.620;25.394;2023-07-24T03:30:05;97210.66;;;20.51;84.53
52591;BME280;38483;42.620;25.394;2023-07-24T03:32:32;97230.09;;;20.70;84.18
52591;BME280;38483;42.620;25.394;2023-07-24T03:34:59;97214.72;;;20.75;83.65
52591;BME280;38483;42.620;25.394;2023-07-24T03:37:26;97205.72;;;20.57;84.17
52591;BME280;38483;42.620;25.394;2023-07-24T03:39:53;97230.47;;;20.66;84.96
52591;BME280;38483;42.620;25.394;2023-07-24T03:42:28;97237.19;;;20.79;84.75
52591;BME280;38483;42.620;25.394;2023-07-24T03:44:56;97241.47;;;20.91;84.82
52591;BME280;38483;42.620;25.394;2023-07-24T03:47:23;97223.63;;;21.16;83.38
52591;BME280;38483;42.620;25.394;2023-07-24T03:49:51;97179.41;;;20.98;82.95
52591;BME280;38483;42.620;25.394;2023-07-24T03:52:18;97226.22;;;21.36;82.51
52591;BME280;38483;42.620;25.394;2023-07-24T03:54:45;97217.88;;;21.11;83.74
52591;BME280;38483;42.620;25.394;2023-07-24T03:57:12;97220.69;;;20.98;84.33
52591;BME280;38483;42.620;25.394;2023-07-24T03:59:39;97236.91;;;20.93;85.18
52591;BME280;38483;42.620;25.394;2023-07-24T04:02:07;97231.84;;;21.22;83.77
52591;BME280;38483;42.620;25.394;2023-07-24T04:04:37;97221.50;;;21.40;83.06
52591;BME280;38483;42.620;25.394;2023-07-24T04:07:04;97225.34;;;21.66;81.87
52591;BME280;38483;42.620;25.394;2023-07-24T04:09:32;97241.41;;;21.93;80.95
52591;BME280;38483;42.620;25.394;2023-07-24T04:12:00;97232.41;;;21.86;80.69
52591;BME280;38483;42.620;25.394;2023-07-24T04:14:27;97237.28;;;21.91;80.58
52591;BME280;38483;42.620;25.394;2023-07-24T04:16:54;97224.56;;;21.75;80.24
52591;BME280;38483;42.620;25.394;2023-07-24T04:19:22;97239.22;;;21.98;79.70
52591;BME280;38483;42.620;25.394;2023-07-24T04:21:50;97241.47;;;22.12;79.57
52591;BME280;38483;42.620;25.394;2023-07-24T04:24:17;97233.34;;;21.85;80.37
52591;BME280;38483;42.620;25.394;2023-07-24T04:26:44;97239.63;;;22.03;80.01
52591;BME280;38483;42.620;25.394;2023-07-24T04:29:11;97245.34;;;22.08;79.06
52591;BME280;38483;42.620;25.394;2023-07-24T04:31:38;97247.97;;;21.99;80.10
52591;BME280;38483;42.620;25.394;2023-07-24T04:34:25;97242.28;;;22.03;79.54
52591;BME280;38483;42.620;25.394;2023-07-24T04:37:46;97239.91;;;21.91;79.61
52591;BME280;38483;42.620;25.394;2023-07-24T04:41:06;97235.75;;;21.98;79.86
52591;BME280;38483;42.620;25.394;2023-07-24T04:44:27;97237.19;;;22.11;79.57
52591;BME280;38483;42.620;25.394;2023-07-24T04:47:48;97233.66;;;22.01;79.57
52591;BME280;38483;42.620;25.394;2023-07-24T04:51:15;97228.97;;;22.05;80.14
52591;BME280;38483;42.620;25.394;2023-07-24T04:54:36;97232.91;;;21.80;81.16
52591;BME280;38483;42.620;25.394;2023-07-24T04:57:56;97233.09;;;21.88;80.87
52591;BME280;38483;42.620;25.394;2023-07-24T05:01:17;97239.53;;;22.14;79.27
52591;BME280;38483;42.620;25.394;2023-07-24T05:04:38;97247.28;;;22.06;80.21
52591;BME280;38483;42.620;25.394;2023-07-24T05:07:58;97237.88;;;22.13;80.24
52591;BME280;38483;42.620;25.394;2023-07-24T05:11:20;97258.16;;;22.22;79.56
52591;BME280;38483;42.620;25.394;2023-07-24T05:14:42;97233.47;;;21.23;82.25
52591;BME280;38483;42.620;25.394;2023-07-24T05:18:03;97237.59;;;21.37;82.65
52591;BME280;38483;42.620;25.394;2023-07-24T05:21:23;97261.34;;;20.84;85.61
52591;BME280;38483;42.620;25.394;2023-07-24T05:24:44;97249.63;;;21.30;83.64
52591;BME280;38483;42.620;25.394;2023-07-24T05:28:05;97255.06;;;21.98;80.51
52591;BME280;38483;42.620;25.394;2023-07-24T05:31:06;97257.47;;;22.49;77.56
52591;BME280;38483;42.620;25.394;2023-07-24T05:33:34;97243.72;;;22.55;76.31
52591;BME280;38483;42.620;25.394;2023-07-24T05:36:03;97251.25;;;22.69;75.68
52591;BME280;38483;42.620;25.394;2023-07-24T05:38:31;97260.66;;;23.19;73.98
52591;BME280;38483;42.620;25.394;2023-07-24T05:41:02;97252.41;;;23.51;72.80
52591;BME280;38483;42.620;25.394;2023-07-24T05:43:30;97240.00;;;22.57;75.81
52591;BME280;38483;42.620;25.394;2023-07-24T05:45:58;97262.34;;;23.11;74.77
52591;BME280;38483;42.620;25.394;2023-07-24T05:48:25;97246.25;;;23.60;72.96
52591;BME280;38483;42.620;25.394;2023-07-24T05:50:52;97257.25;;;23.56;71.91
52591;BME280;38483;42.620;25.394;2023-07-24T05:53:20;97257.59;;;23.33;73.19
52591;BME280;38483;42.620;25.394;2023-07-24T05:55:56;97259.41;;;23.23;74.09
52591;BME280;38483;42.620;25.394;2023-07-24T05:58:23;97242.75;;;23.32;73.13
52591;BME280;38483;42.620;25.394;2023-07-24T06:00:50;97253.25;;;23.79;72.12
52591;BME280;38483;42.620;25.394;2023-07-24T06:03:17;97229.41;;;23.88;70.74
52591;BME280;38483;42.620;25.394;2023-07-24T06:05:45;97239.22;;;24.05;69.03
52591;BME280;38483;42.620;25.394;2023-07-24T06:08:12;97232.28;;;23.95;70.14
52591;BME280;38483;42.620;25.394;2023-07-24T06:10:39;97234.66;;;23.71;70.60
52591;BME280;38483;42.620;25.394;2023-07-24T06:13:06;97248.88;;;23.70;67.10
52591;BME280;38483;42.620;25.394;2023-07-24T06:15:34;97248.34;;;24.20;65.93
52591;BME280;38483;42.620;25.394;2023-07-24T06:18:01;97213.88;;;24.48;64.99
52591;BME280;38483;42.620;25.394;2023-07-24T06:20:28;97195.06;;;24.59;63.94
52591;BME280;38483;42.620;25.394;2023-07-24T06:22:55;97246.47;;;25.01;62.33
52591;BME280;38483;42.620;25.394;2023-07-24T06:25:22;97251.53;;;25.12;62.86
52591;BME280;38483;42.620;25.394;2023-07-24T06:27:53;97252.22;;;24.96;61.76
52591;BME280;38483;42.620;25.394;2023-07-24T06:30:20;97242.59;;;25.39;60.87
52591;BME280;38483;42.620;25.394;2023-07-24T06:33:07;97162.00;;;25.06;60.40
52591;BME280;38483;42.620;25.394;2023-07-24T06:36:11;97236.88;;;25.51;60.28
52591;BME280;38483;42.620;25.394;2023-07-24T06:38:38;97231.72;;;25.83;59.32
52591;BME280;38483;42.620;25.394;2023-07-24T06:41:06;97233.94;;;25.96;58.94
52591;BME280;38483;42.620;25.394;2023-07-24T06:43:33;97232.44;;;25.94;58.28
52591;BME280;38483;42.620;25.394;2023-07-24T06:46:00;97220.50;;;25.98;56.70
52591;BME280;38483;42.620;25.394;2023-07-24T06:48:27;97241.19;;;26.28;56.47
52591;BME280;38483;42.620;25.394;2023-07-24T06:50:54;97220.31;;;26.41;55.42
52591;BME280;38483;42.620;25.394;2023-07-24T06:53:21;97237.31;;;26.72;53.58
52591;BME280;38483;42.620;25.394;2023-07-24T06:55:52;97239.59;;;26.67;52.40
52591;BME280;38483;42.620;25.394;2023-07-24T06:58:26;97231.44;;;26.52;52.54
52591;BME280;38483;42.620;25.394;2023-07-24T07:00:53;97222.88;;;26.75;52.12
52591;BME280;38483;42.620;25.394;2023-07-24T07:03:20;97223.19;;;27.04;51.63
52591;BME280;38483;42.620;25.394;2023-07-24T07:05:47;97206.38;;;27.19;50.37
52591;BME280;38483;42.620;25.394;2023-07-24T07:08:14;97209.53;;;27.23;50.88
52591;BME280;38483;42.620;25.394;2023-07-24T07:10:41;97191.06;;;27.29;49.28
52591;BME280;38483;42.620;25.394;2023-07-24T07:13:09;97204.00;;;27.57;48.84
52591;BME280;38483;42.620;25.394;2023-07-24T07:15:37;97205.06;;;27.78;48.61
52591;BME280;38483;42.620;25.394;2023-07-24T07:18:08;97196.94;;;27.80;48.24
52591;BME280;38483;42.620;25.394;2023-07-24T07:20:45;97180.91;;;27.96;47.95
52591;BME280;38483;42.620;25.394;2023-07-24T07:23:32;97199.63;;;28.10;47.82
52591;BME280;38483;42.620;25.394;2023-07-24T07:26:52;97206.75;;;28.18;48.27
52591;BME280;38483;42.620;25.394;2023-07-24T07:30:13;97204.38;;;27.92;48.75
52591;BME280;38483;42.620;25.394;2023-07-24T07:33:34;97205.03;;;27.94;47.71
52591;BME280;38483;42.620;25.394;2023-07-24T07:36:54;97205.47;;;28.06;47.48
52591;BME280;38483;42.620;25.394;2023-07-24T07:40:15;97195.13;;;28.11;46.69
52591;BME280;38483;42.620;25.394;2023-07-24T07:43:36;97195.00;;;28.35;43.87
52591;BME280;38483;42.620;25.394;2023-07-24T07:46:57;97191.03;;;28.00;45.61
52591;BME280;38483;42.620;25.394;2023-07-24T07:50:18;97194.97;;;28.12;44.22
52591;BME280;38483;42.620;25.394;2023-07-24T07:53:38;97185.38;;;28.26;44.21
52591;BME280;38483;42.620;25.394;2023-07-24T07:56:39;97196.75;;;28.43;45.25
52591;BME280;38483;42.620;25.394;2023-07-24T07:59:06;97185.78;;;28.68;45.06
52591;BME280;38483;42.620;25.394;2023-07-24T08:01:53;97190.09;;;29.07;44.55
52591;BME280;38483;42.620;25.394;2023-07-24T08:05:14;97184.88;;;29.13;44.61
52591;BME280;38483;42.620;25.394;2023-07-24T08:08:35;97186.38;;;28.78;45.35
52591;BME280;38483;42.620;25.394;2023-07-24T08:11:55;97179.72;;;28.52;46.26
52591;BME280;38483;42.620;25.394;2023-07-24T08:15:16;97180.59;;;28.67;46.09
52591;BME280;38483;42.620;25.394;2023-07-24T08:18:36;97174.59;;;28.42;45.60
52591;BME280;38483;42.620;25.394;2023-07-24T08:21:37;97160.56;;;27.95;46.23
52591;BME280;38483;42.620;25.394;2023-07-24T08:24:06;97158.84;;;28.10;46.37
52591;BME280;38483;42.620;25.394;2023-07-24T08:26:33;97156.31;;;28.39;46.32
52591;BME280;38483;42.620;25.394;2023-07-24T08:29:00;97152.34;;;28.80;45.19
52591;BME280;38483;42.620;25.394;2023-07-24T08:31:29;97148.72;;;29.11;43.17
52591;BME280;38483;42.620;25.394;2023-07-24T08:33:56;97155.69;;;29.49;42.53
52591;BME280;38483;42.620;25.394;2023-07-24T08:36:23;97170.09;;;29.69;42.59
52591;BME280;38483;42.620;25.394;2023-07-24T08:38:51;97170.94;;;29.55;41.39
52591;BME280;38483;42.620;25.394;2023-07-24T08:41:18;97167.69;;;29.59;41.39
52591;BME280;38483;42.620;25.394;2023-07-24T08:43:45;97119.09;;;29.49;40.86
52591;BME280;38483;42.620;25.394;2023-07-24T08:46:12;97139.69;;;29.70;40.78
52591;BME280;38483;42.620;25.394;2023-07-24T08:48:41;97131.44;;;29.65;40.61
52591;BME280;38483;42.620;25.394;2023-07-24T08:51:10;97153.44;;;29.96;40.41
52591;BME280;38483;42.620;25.394;2023-07-24T08:53:40;97176.03;;;30.15;40.68
52591;BME280;38483;42.620;25.394;2023-07-24T08:56:16;97160.00;;;30.15;39.87
52591;BME280;38483;42.620;25.394;2023-07-24T08:58:44;97157.75;;;29.97;39.79
52591;BME280;38483;42.620;25.394;2023-07-24T09:01:11;97162.13;;;30.05;39.12
52591;BME280;38483;42.620;25.394;2023-07-24T09:03:38;97151.28;;;30.06;39.49
52591;BME280;38483;42.620;25.394;2023-07-24T09:06:05;97155.53;;;30.22;39.25
52591;BME280;38483;42.620;25.394;2023-07-24T09:11:04;97153.31;;;30.25;40.80
52591;BME280;38483;42.620;25.394;2023-07-24T09:13:32;97136.59;;;29.81;40.85
52591;BME280;38483;42.620;25.394;2023-07-24T09:15:59;97137.78;;;30.14;39.83
52591;BME280;38483;42.620;25.394;2023-07-24T09:18:26;97139.97;;;30.04;39.57
52591;BME280;38483;42.620;25.394;2023-07-24T09:20:53;97123.00;;;29.47;40.29
52591;BME280;38483;42.620;25.394;2023-07-24T09:23:27;97136.59;;;29.52;40.80
52591;BME280;38483;42.620;25.394;2023-07-24T09:25:57;97131.56;;;29.42;41.84
52591;BME280;38483;42.620;25.394;2023-07-24T09:28:24;97121.06;;;29.26;42.53
52591;BME280;38483;42.620;25.394;2023-07-24T09:30:56;97120.34;;;29.47;42.43
52591;BME280;38483;42.620;25.394;2023-07-24T09:33:37;97127.00;;;29.72;41.67
52591;BME280;38483;42.620;25.394;2023-07-24T09:36:07;97132.53;;;29.70;41.62
52591;BME280;38483;42.620;25.394;2023-07-24T09:38:39;97129.97;;;29.48;41.27
52591;BME280;38483;42.620;25.394;2023-07-24T09:41:07;97093.88;;;29.52;41.35
52591;BME280;38483;42.620;25.394;2023-07-24T09:43:34;97118.00;;;29.73;41.65
52591;BME280;38483;42.620;25.394;2023-07-24T09:46:08;97109.69;;;29.68;41.95
52591;BME280;38483;42.620;25.394;2023-07-24T09:48:37;97102.63;;;29.60;41.99
52591;BME280;38483;42.620;25.394;2023-07-24T09:51:11;97115.53;;;29.57;40.97
52591;BME280;38483;42.620;25.394;2023-07-24T09:56:47;97104.50;;;29.96;41.57
52591;BME280;38483;42.620;25.394;2023-07-24T09:59:49;97088.91;;;29.99;41.21
52591;BME280;38483;42.620;25.394;2023-07-24T10:02:17;97088.78;;;30.43;38.62
52591;BME280;38483;42.620;25.394;2023-07-24T10:04:46;97094.25;;;30.63;36.95
52591;BME280;38483;42.620;25.394;2023-07-24T10:07:13;97089.88;;;30.76;36.95
52591;BME280;38483;42.620;25.394;2023-07-24T10:09:44;97069.25;;;30.70;37.27
52591;BME280;38483;42.620;25.394;2023-07-24T10:12:12;97076.47;;;31.04;37.66
52591;BME280;38483;42.620;25.394;2023-07-24T10:14:40;97061.94;;;30.58;38.96
52591;BME280;38483;42.620;25.394;2023-07-24T10:17:07;97053.56;;;30.88;36.50
52591;BME280;38483;42.620;25.394;2023-07-24T10:19:43;97063.31;;;31.37;35.35
52591;BME280;38483;42.620;25.394;2023-07-24T10:22:20;97032.25;;;31.42;35.06
52591;BME280;38483;42.620;25.394;2023-07-24T10:24:57;97057.47;;;31.74;35.54
52591;BME280;38483;42.620;25.394;2023-07-24T10:27:24;97060.44;;;31.92;35.69
52591;BME280;38483;42.620;25.394;2023-07-24T10:30:03;97052.13;;;31.74;35.40
52591;BME280;38483;42.620;25.394;2023-07-24T10:32:49;97017.81;;;31.43;36.89
52591;BME280;38483;42.620;25.394;2023-07-24T10:35:21;97016.97;;;31.36;36.71
52591;BME280;38483;42.620;25.394;2023-07-24T10:37:59;97044.66;;;31.56;38.18
52591;BME280;38483;42.620;25.394;2023-07-24T10:40:29;97036.38;;;31.51;39.59
52591;BME280;38483;42.620;25.394;2023-07-24T10:43:04;97042.47;;;31.32;39.13
52591;BME280;38483;42.620;25.394;2023-07-24T10:45:42;97040.94;;;31.51;38.86
52591;BME280;38483;42.620;25.394;2023-07-24T10:48:09;97038.53;;;31.69;38.91
52591;BME280;38483;42.620;25.394;2023-07-24T10:50:40;97034.78;;;31.57;37.69
52591;BME280;38483;42.620;25.394;2023-07-24T10:53:13;97024.88;;;31.51;38.20
52591;BME280;38483;42.620;25.394;2023-07-24T10:55:43;97028.47;;;31.84;37.33
52591;BME280;38483;42.620;25.394;2023-07-24T10:58:11;97029.56;;;32.02;37.89
52591;BME280;38483;42.620;25.394;2023-07-24T11:00:43;97018.75;;;31.76;38.73
52591;BME280;38483;42.620;25.394;2023-07-24T11:03:11;97001.88;;;31.82;36.93
52591;BME280;38483;42.620;25.394;2023-07-24T11:05:43;97014.94;;;32.31;36.24
52591;BME280;38483;42.620;25.394;2023-07-24T11:08:15;97009.41;;;32.46;36.46
52591;BME280;38483;42.620;25.394;2023-07-24T11:10:54;97011.84;;;32.60;35.68
52591;BME280;38483;42.620;25.394;2023-07-24T11:13:26;97001.34;;;32.52;36.01
52591;BME280;38483;42.620;25.394;2023-07-24T11:15:54;97008.34;;;32.47;35.70
52591;BME280;38483;42.620;25.394;2023-07-24T11:18:22;97007.09;;;32.69;35.77
52591;BME280;38483;42.620;25.394;2023-07-24T11:20:52;96996.72;;;32.85;34.60
52591;BME280;38483;42.620;25.394;2023-07-24T11:23:19;96992.81;;;32.88;34.28
52591;BME280;38483;42.620;25.394;2023-07-24T11:25:47;96994.06;;;32.99;34.82
52591;BME280;38483;42.620;25.394;2023-07-24T11:28:16;96989.91;;;33.09;35.06
52591;BME280;38483;42.620;25.394;2023-07-24T11:30:44;96985.13;;;33.18;33.39
52591;BME280;38483;42.620;25.394;2023-07-24T11:33:12;96996.66;;;33.18;32.99
52591;BME280;38483;42.620;25.394;2023-07-24T11:35:44;96983.22;;;33.25;32.84
52591;BME280;38483;42.620;25.394;2023-07-24T11:38:12;96974.06;;;33.39;32.65
52591;BME280;38483;42.620;25.394;2023-07-24T11:40:42;96986.94;;;33.30;34.21
52591;BME280;38483;42.620;25.394;2023-07-24T11:43:23;96985.38;;;32.97;34.38
52591;BME280;38483;42.620;25.394;2023-07-24T11:45:52;96976.69;;;33.08;33.94
52591;BME280;38483;42.620;25.394;2023-07-24T11:48:21;96957.31;;;32.86;31.98
52591;BME280;38483;42.620;25.394;2023-07-24T11:50:55;96966.16;;;33.00;31.56
52591;BME280;38483;42.620;25.394;2023-07-24T11:53:30;96951.19;;;32.72;32.78
52591;BME280;38483;42.620;25.394;2023-07-24T11:55:59;96949.13;;;32.61;33.69
52591;BME280;38483;42.620;25.394;2023-07-24T11:58:29;96946.19;;;32.76;33.77
52591;BME280;38483;42.620;25.394;2023-07-24T12:00:56;96948.41;;;32.92;34.45
52591;BME280;38483;42.620;25.394;2023-07-24T12:03:27;96949.88;;;33.01;33.13
52591;BME280;38483;42.620;25.394;2023-07-24T12:05:55;96944.69;;;33.06;34.61
52591;BME280;38483;42.620;25.394;2023-07-24T12:08:35;96940.25;;;33.25;34.55
52591;BME280;38483;42.620;25.394;2023-07-24T12:11:02;96923.03;;;33.39;33.53
52591;BME280;38483;42.620;25.394;2023-07-24T12:13:29;96927.53;;;33.51;33.09
52591;BME280;38483;42.620;25.394;2023-07-24T12:15:58;96945.81;;;33.67;33.62
52591;BME280;38483;42.620;25.394;2023-07-24T12:18:26;96940.72;;;33.15;34.65
52591;BME280;38483;42.620;25.394;2023-07-24T12:20:53;96949.56;;;33.22;33.46
52591;BME280;38483;42.620;25.394;2023-07-24T12:23:20;96947.63;;;33.42;33.03
52591;BME280;38483;42.620;25.394;2023-07-24T12:25:47;96950.47;;;33.47;32.68
52591;BME280;38483;42.620;25.394;2023-07-24T12:28:14;96935.84;;;33.37;32.20
52591;BME280;38483;42.620;25.394;2023-07-24T12:30:42;96913.44;;;33.18;32.29
52591;BME280;38483;42.620;25.394;2023-07-24T12:33:09;96935.59;;;33.07;32.93
52591;BME280;38483;42.620;25.394;2023-07-24T12:35:36;96927.88;;;33.24;32.68
52591;BME280;38483;42.620;25.394;2023-07-24T12:38:03;96931.25;;;33.06;32.54
52591;BME280;38483;42.620;25.394;2023-07-24T12:40:30;96875.03;;;32.67;32.74
52591;BME280;38483;42.620;25.394;2023-07-24T12:42:57;96929.19;;;33.08;34.06
52591;BME280;38483;42.620;25.394;2023-07-24T12:45:24;96920.97;;;32.90;34.66
52591;BME280;38483;42.620;25.394;2023-07-24T12:47:51;96915.94;;;32.49;34.90
52591;BME280;38483;42.620;25.394;2023-07-24T12:50:20;96908.91;;;32.61;34.52
52591;BME280;38483;42.620;25.394;2023-07-24T12:52:48;96904.06;;;32.83;33.55
52591;BME280;38483;42.620;25.394;2023-07-24T12:55:15;96890.59;;;32.96;33.08
52591;BME280;38483;42.620;25.394;2023-07-24T12:57:42;96900.97;;;32.86;34.14
52591;BME280;38483;42.620;25.394;2023-07-24T13:00:10;96898.03;;;33.01;34.44
52591;BME280;38483;42.620;25.394;2023-07-24T13:02:37;96907.03;;;33.19;33.96
52591;BME280;38483;42.620;25.394;2023-07-24T13:05:05;96895.44;;;33.25;33.46
52591;BME280;38483;42.620;25.394;2023-07-24T13:07:32;96900.16;;;33.30;33.12
52591;BME280;38483;42.620;25.394;2023-07-24T13:09:59;96892.84;;;33.43;33.05
52591;BME280;38483;42.620;25.394;2023-07-24T13:12:26;96875.88;;;33.49;32.45
52591;BME280;38483;42.620;25.394;2023-07-24T13:14:53;96888.91;;;33.52;33.78
52591;BME280;38483;42.620;25.394;2023-07-24T13:17:20;96893.44;;;33.45;33.51
52591;BME280;38483;42.620;25.394;2023-07-24T13:19:48;96892.22;;;33.41;33.56
52591;BME280;38483;42.620;25.394;2023-07-24T13:22:15;96882.91;;;33.50;33.39
52591;BME280;38483;42.620;25.394;2023-07-24T13:24:45;96876.94;;;33.42;33.66
52591;BME280;38483;42.620;25.394;2023-07-24T13:27:21;96891.44;;;33.03;35.69
52591;BME280;38483;42.620;25.394;2023-07-24T13:29:48;96866.28;;;32.91;35.46
52591;BME280;38483;42.620;25.394;2023-07-24T13:32:16;96877.44;;;32.81;36.09
52591;BME280;38483;42.620;25.394;2023-07-24T13:34:43;96861.06;;;32.96;35.65